Hordafor III — LLVC — position and weather

sailwx.info

Track history (hours):
 
Tides and Currents Weather Stations Pressure Air Temp Water Temp Dewpoint Dewpoint Depression Visibility Wind Speed Wind Dir Waves Ship Positions

Hordafor III

Last reported at 2016-Feb-08 01:33 UTC. Time now 2016-Feb-08 02:02 UTC.
Position N 65°03' E 011°43'.

Length 50 m; draft 6 m.

Type: Cargo ship. MMSI: 258044000.

Date/timePositionNaut miles runAvg speedWind from/ knotsBaromVisibWave heightAir tempDewpointWater temp
2016-Feb-08 01:33N 65°03' E 011°43'1111.0
2016-Feb-08 00:33N 65°13' E 011°54'7410.3
2016-Feb-07 17:21N 66°22' E 012°58'3510.5
2016-Feb-07 14:03N 66°55' E 013°29'1010.5
2016-Feb-07 13:07N 67°02' E 013°47'611.3
2016-Feb-07 12:33N 67°06' E 013°58'1111.2
2016-Feb-07 11:33N 67°16' E 014°13'1111.3
2016-Feb-07 10:33N 67°26' E 014°27'3 0.2
2016-Feb-06 14:33N 67°29' E 014°29'1110.7
2016-Feb-06 13:33N 67°19' E 014°19'1110.9
2016-Feb-06 12:33N 67°10' E 014°03'1110.9
2016-Feb-06 11:33N 67°02' E 013°46'1010.3
2016-Feb-06 10:33N 66°54' E 013°27'21 4.1
2016-Feb-06 05:27N 66°37' E 012°57'0 0.0
2016-Feb-06 03:26N 66°37' E 012°57'48 2.1
2016-Feb-05 04:33N 67°19' E 013°57'1111.0
2016-Feb-05 03:33N 67°29' E 014°12'1211.3
2016-Feb-05 02:31N 67°40' E 014°16'13 0.8
2016-Feb-04 09:14N 67°28' E 014°28'710.5
2016-Feb-04 08:33N 67°21' E 014°23'1110.7
2016-Feb-04 07:33N 67°13' E 014°07'1110.7
2016-Feb-04 06:32N 67°03' E 013°52'1010.7
2016-Feb-04 05:33N 66°58' E 013°30'24 6.9
2016-Feb-04 02:04N 66°37' E 012°57'0 0.0
2016-Feb-03 11:18N 66°37' E 012°57'15 0.4
2016-Feb-01 20:05N 66°22' E 012°58'3710.5
2016-Feb-01 16:33N 66°57' E 013°29'1111.3
2016-Feb-01 15:32N 67°04' E 013°53'1111.1
2016-Feb-01 14:33N 67°13' E 014°08'1111.3
2016-Feb-01 13:33N 67°22' E 014°24'12 0.7
2016-Jan-31 19:20N 67°34' E 014°20'810.5
2016-Jan-31 18:33N 67°26' E 014°26'1110.7
2016-Jan-31 17:33N 67°17' E 014°14'1111.2
2016-Jan-31 16:33N 67°07' E 014°00'1111.0
2016-Jan-31 15:33N 66°60' E 013°38'1110.5
2016-Jan-31 14:28N 66°51' E 013°19'10310.4
2016-Jan-31 04:33N 65°14' E 011°55'1110.7
2016-Jan-31 03:33N 65°04' E 011°45'1110.7
2016-Jan-31 02:33N 64°56' E 011°27'1111.0
2016-Jan-31 01:33N 64°49' E 011°08'6210.0
2016-Jan-30 19:20N 63°57' E 009°49'911.1
2016-Jan-30 18:32N 63°50' E 009°36'6 6.0
2016-Jan-30 17:33N 63°44' E 009°35'0 0.0
2016-Jan-30 16:33N 63°44' E 009°35'0 0.0
2016-Jan-30 15:33N 63°44' E 009°35'0 0.0
2016-Jan-30 14:33N 63°44' E 009°35'0 0.0
2016-Jan-30 13:33N 63°44' E 009°35'0 0.0
2016-Jan-30 12:33N 63°44' E 009°35'0 0.0
2016-Jan-30 11:33N 63°44' E 009°35'7 7.2
2016-Jan-30 10:33N 63°51' E 009°39'1110.6
2016-Jan-30 09:33N 63°59' E 009°54'53 2.3
2016-Jan-29 10:12N 64°41' E 011°06'6 9.9
2016-Jan-29 09:33N 64°48' E 011°06'1010.4
2016-Jan-29 08:33N 64°55' E 011°23'1110.8
2016-Jan-29 07:33N 65°02' E 011°43'1110.8
2016-Jan-29 06:31N 65°13' E 011°53'  
Track history (hours):
 
Tides and Currents Weather Stations Pressure Air Temp Water Temp Dewpoint Dewpoint Depression Visibility Wind Speed Wind Dir Waves Ship Positions

Hordafor III

Last reported at 2016-Feb-08 01:33 UTC. Time now 2016-Feb-08 02:02 UTC.
Position N 65°03' E 011°43'.

Length 50 m; draft 6 m.

Type: Cargo ship. MMSI: 258044000.

Date/timePositionNaut miles runAvg speedWind from/ knotsBaromVisibWave heightAir tempDewpointWater temp
2016-Feb-08 01:33N 65°03' E 011°43'1111.0
2016-Feb-08 00:33N 65°13' E 011°54'7410.3
2016-Feb-07 17:21N 66°22' E 012°58'3510.5
2016-Feb-07 14:03N 66°55' E 013°29'1010.5
2016-Feb-07 13:07N 67°02' E 013°47'611.3
2016-Feb-07 12:33N 67°06' E 013°58'1111.2
2016-Feb-07 11:33N 67°16' E 014°13'1111.3
2016-Feb-07 10:33N 67°26' E 014°27'3 0.2
2016-Feb-06 14:33N 67°29' E 014°29'1110.7
2016-Feb-06 13:33N 67°19' E 014°19'1110.9
2016-Feb-06 12:33N 67°10' E 014°03'1110.9
2016-Feb-06 11:33N 67°02' E 013°46'1010.3
2016-Feb-06 10:33N 66°54' E 013°27'21 4.1
2016-Feb-06 05:27N 66°37' E 012°57'0 0.0
2016-Feb-06 03:26N 66°37' E 012°57'48 2.1
2016-Feb-05 04:33N 67°19' E 013°57'1111.0
2016-Feb-05 03:33N 67°29' E 014°12'1211.3
2016-Feb-05 02:31N 67°40' E 014°16'13 0.8
2016-Feb-04 09:14N 67°28' E 014°28'710.5
2016-Feb-04 08:33N 67°21' E 014°23'1110.7
2016-Feb-04 07:33N 67°13' E 014°07'1110.7
2016-Feb-04 06:32N 67°03' E 013°52'1010.7
2016-Feb-04 05:33N 66°58' E 013°30'24 6.9
2016-Feb-04 02:04N 66°37' E 012°57'0 0.0
2016-Feb-03 11:18N 66°37' E 012°57'15 0.4
2016-Feb-01 20:05N 66°22' E 012°58'3710.5
2016-Feb-01 16:33N 66°57' E 013°29'1111.3
2016-Feb-01 15:32N 67°04' E 013°53'1111.1
2016-Feb-01 14:33N 67°13' E 014°08'1111.3
2016-Feb-01 13:33N 67°22' E 014°24'12 0.7
2016-Jan-31 19:20N 67°34' E 014°20'810.5
2016-Jan-31 18:33N 67°26' E 014°26'1110.7
2016-Jan-31 17:33N 67°17' E 014°14'1111.2
2016-Jan-31 16:33N 67°07' E 014°00'1111.0
2016-Jan-31 15:33N 66°60' E 013°38'1110.5
2016-Jan-31 14:28N 66°51' E 013°19'10310.4
2016-Jan-31 04:33N 65°14' E 011°55'1110.7
2016-Jan-31 03:33N 65°04' E 011°45'1110.7
2016-Jan-31 02:33N 64°56' E 011°27'1111.0
2016-Jan-31 01:33N 64°49' E 011°08'6210.0
2016-Jan-30 19:20N 63°57' E 009°49'911.1
2016-Jan-30 18:32N 63°50' E 009°36'6 6.0
2016-Jan-30 17:33N 63°44' E 009°35'0 0.0
2016-Jan-30 16:33N 63°44' E 009°35'0 0.0
2016-Jan-30 15:33N 63°44' E 009°35'0 0.0
2016-Jan-30 14:33N 63°44' E 009°35'0 0.0
2016-Jan-30 13:33N 63°44' E 009°35'0 0.0
2016-Jan-30 12:33N 63°44' E 009°35'0 0.0
2016-Jan-30 11:33N 63°44' E 009°35'7 7.2
2016-Jan-30 10:33N 63°51' E 009°39'1110.6
2016-Jan-30 09:33N 63°59' E 009°54'53 2.3
2016-Jan-29 10:12N 64°41' E 011°06'6 9.9
2016-Jan-29 09:33N 64°48' E 011°06'1010.4
2016-Jan-29 08:33N 64°55' E 011°23'1110.8
2016-Jan-29 07:33N 65°02' E 011°43'1110.8
2016-Jan-29 06:31N 65°13' E 011°53'  

Dump ship's entire track history